createdAt,value
2019-05-05T00:01:34.411Z,5.20
2019-05-05T00:05:44.853Z,4.47
2019-05-05T00:09:55.118Z,4.50
2019-05-05T00:14:17.438Z,5.50
2019-05-05T00:18:27.563Z,4.63
2019-05-05T00:22:36.333Z,4.23
2019-05-05T00:26:46.076Z,4.70
2019-05-05T00:30:55.383Z,4.70
2019-05-05T00:35:06.506Z,4.10
2019-05-05T00:39:15.118Z,5.47
2019-05-05T00:43:25.296Z,5.30
2019-05-05T00:52:06.648Z,5.17
2019-05-05T00:56:15.117Z,4.50
2019-05-05T01:05:11.664Z,5.77
2019-05-05T01:09:25.197Z,4.70
2019-05-05T01:13:35.178Z,5.03
2019-05-05T01:17:45.128Z,6.77
2019-05-05T01:21:54.407Z,5.03
2019-05-05T01:26:05.072Z,5.63
2019-05-05T01:30:15.813Z,6.10
2019-05-05T01:34:25.884Z,5.53
2019-05-05T01:42:54.643Z,6.07
2019-05-05T01:47:02.930Z,5.90
2019-05-05T01:51:11.386Z,5.47
2019-05-05T01:55:20.272Z,4.50
2019-05-05T01:59:29.207Z,4.70
2019-05-05T02:03:38.050Z,5.80
2019-05-05T02:07:46.526Z,4.97
2019-05-05T02:11:55.101Z,5.40
2019-05-05T02:16:04.592Z,4.50
2019-05-05T02:20:34.647Z,5.90
2019-05-05T02:24:44.392Z,5.00
2019-05-05T02:28:54.831Z,4.60
2019-05-05T02:33:06.277Z,6.20
2019-05-05T02:37:16.008Z,4.70
2019-05-05T02:41:25.564Z,5.50
2019-05-05T02:45:56.883Z,4.60
2019-05-05T02:50:07.464Z,5.00
2019-05-05T02:54:17.433Z,4.50
2019-05-05T02:58:28.040Z,5.00
2019-05-05T03:02:36.885Z,5.00
2019-05-05T03:06:48.766Z,5.20
2019-05-05T03:11:00.148Z,4.67
2019-05-05T03:15:10.868Z,5.50
2019-05-05T03:19:21.010Z,4.33
2019-05-05T03:23:29.499Z,5.10
2019-05-05T03:27:38.443Z,5.47
2019-05-05T03:32:11.488Z,6.27
2019-05-05T03:36:18.257Z,5.30
2019-05-05T03:40:28.432Z,5.10
2019-05-05T03:44:38.978Z,5.47
2019-05-05T03:48:47.435Z,6.10
2019-05-05T03:52:55.897Z,5.43
2019-05-05T03:57:10.490Z,6.13
2019-05-05T04:01:39.991Z,5.27
2019-05-05T04:05:50.444Z,5.53
2019-05-05T04:09:58.914Z,5.00
2019-05-05T04:14:07.523Z,4.67
2019-05-05T04:18:21.035Z,5.30
2019-05-05T04:22:31.134Z,5.80
2019-05-05T04:26:39.574Z,5.60
2019-05-05T04:30:48.042Z,6.03
2019-05-05T04:34:56.487Z,5.20
2019-05-05T04:39:06.877Z,5.37
2019-05-05T04:43:27.955Z,5.63
2019-05-05T04:47:38.155Z,5.63
2019-05-05T04:51:54.119Z,5.60
2019-05-05T04:56:04.226Z,5.20
2019-05-05T05:00:13.720Z,4.93
2019-05-05T05:04:40.311Z,5.20
2019-05-05T05:08:48.747Z,5.67
2019-05-05T05:12:57.211Z,5.97
2019-05-05T05:17:07.320Z,5.77
2019-05-05T05:21:16.047Z,4.73
2019-05-05T05:25:24.531Z,6.60
2019-05-05T05:29:34.573Z,5.50
2019-05-05T05:33:55.718Z,5.70
2019-05-05T05:38:04.618Z,4.70
2019-05-05T05:42:13.783Z,5.53
2019-05-05T05:46:39.203Z,5.13
2019-05-05T05:50:49.370Z,5.10
2019-05-05T05:54:57.843Z,4.63
2019-05-05T05:59:25.906Z,5.83
2019-05-05T06:03:34.450Z,5.53
2019-05-05T06:07:44.295Z,5.40
2019-05-05T06:11:54.181Z,5.73
2019-05-05T06:16:04.247Z,5.83
2019-05-05T06:20:14.515Z,4.97
2019-05-05T06:24:24.039Z,5.80
2019-05-05T06:28:34.241Z,6.83
2019-05-05T06:32:43.751Z,5.50
2019-05-05T06:36:53.745Z,5.10
2019-05-05T06:41:20.179Z,6.27
2019-05-05T06:45:30.296Z,6.00
2019-05-05T06:49:38.763Z,8.67
2019-05-05T06:53:47.192Z,6.93
2019-05-05T06:57:55.668Z,6.67
2019-05-05T07:02:04.419Z,6.20
2019-05-05T07:06:14.669Z,7.20
2019-05-05T07:10:24.471Z,7.40
2019-05-05T07:14:34.013Z,7.30
2019-05-05T07:18:44.620Z,6.50
2019-05-05T07:23:01.528Z,6.73
2019-05-05T07:27:04.721Z,7.87
2019-05-05T07:31:14.366Z,6.90
2019-05-05T07:35:24.902Z,7.20
2019-05-05T07:39:34.091Z,6.93
2019-05-05T07:43:43.751Z,6.30
2019-05-05T07:47:53.799Z,6.40
2019-05-05T07:52:04.048Z,7.93
2019-05-05T07:56:14.449Z,6.62
2019-05-05T08:00:24.084Z,8.00
2019-05-05T08:04:34.612Z,7.53
2019-05-05T08:08:44.357Z,6.93
2019-05-05T08:12:54.226Z,6.00
2019-05-05T08:17:04.521Z,6.60
2019-05-05T08:21:13.644Z,6.33
2019-05-05T08:25:45.360Z,7.00
2019-05-05T08:29:55.077Z,6.73
2019-05-05T08:34:03.955Z,6.20
2019-05-05T08:38:13.768Z,7.03
2019-05-05T08:42:24.677Z,6.53
2019-05-05T08:46:34.054Z,7.90
2019-05-05T08:51:01.944Z,6.90
2019-05-05T08:55:10.482Z,6.30
2019-05-05T08:59:19.427Z,6.53
2019-05-05T09:03:27.877Z,6.27
2019-05-05T09:07:36.359Z,7.03
2019-05-05T09:11:44.821Z,5.77
2019-05-05T09:15:54.388Z,5.77
2019-05-05T09:20:04.521Z,6.47
2019-05-05T09:24:17.679Z,5.40
2019-05-05T09:28:34.121Z,6.10
2019-05-05T09:32:43.838Z,6.50
2019-05-05T09:36:54.444Z,6.03
2019-05-05T09:41:03.771Z,6.13
2019-05-05T09:45:14.017Z,5.57
2019-05-05T09:49:24.647Z,5.13
2019-05-05T09:53:34.436Z,5.07
2019-05-05T09:57:43.802Z,7.03
2019-05-05T10:01:53.771Z,6.37
2019-05-05T10:06:04.702Z,5.30
2019-05-05T10:10:13.874Z,5.30
2019-05-05T10:14:22.477Z,6.20
2019-05-05T10:18:30.958Z,7.10
2019-05-05T10:22:39.419Z,4.57
2019-05-05T10:26:48.194Z,5.60
2019-05-05T10:30:56.668Z,6.87
2019-05-05T10:35:06.977Z,6.20
2019-05-05T10:39:33.490Z,5.83
2019-05-05T10:43:43.739Z,5.50
2019-05-05T10:47:52.680Z,6.93
2019-05-05T10:52:01.160Z,6.20
2019-05-05T10:56:10.197Z,4.70
2019-05-05T11:00:44.528Z,5.20
2019-05-05T11:04:54.623Z,4.80
2019-05-05T11:09:05.367Z,5.87
2019-05-05T11:13:13.922Z,4.70
2019-05-05T11:17:24.611Z,5.27
2019-05-05T11:21:34.171Z,5.30
2019-05-05T11:25:44.235Z,5.93
2019-05-05T11:30:14.298Z,5.80
2019-05-05T11:34:24.934Z,5.13
2019-05-05T11:38:33.992Z,5.05
2019-05-05T11:42:42.467Z,6.07
2019-05-05T11:46:50.957Z,5.67
2019-05-05T11:50:59.425Z,5.67
2019-05-05T11:55:11.669Z,6.00
2019-05-05T11:59:18.166Z,6.13
2019-05-05T12:03:26.650Z,5.73
2019-05-05T12:07:35.125Z,6.47
2019-05-05T12:11:43.911Z,4.97
2019-05-05T12:15:54.103Z,6.23
2019-05-05T12:20:04.825Z,5.70
2019-05-05T12:24:14.930Z,6.07
2019-05-05T12:28:25.061Z,4.80
2019-05-05T12:32:34.803Z,5.87
2019-05-05T12:36:44.551Z,6.10
2019-05-05T12:40:53.636Z,6.23
2019-05-05T12:45:04.568Z,6.30
2019-05-05T12:49:13.993Z,4.67
2019-05-05T12:53:23.806Z,5.30
2019-05-05T12:57:34.183Z,4.97
2019-05-05T13:01:44.144Z,4.93
2019-05-05T13:05:53.594Z,4.67
2019-05-05T13:10:04.686Z,4.63
2019-05-05T13:14:14.264Z,3.83
2019-05-05T13:18:24.539Z,4.10
2019-05-05T13:22:34.868Z,4.20
2019-05-05T13:31:01.522Z,4.43
2019-05-05T13:35:10.690Z,4.60
2019-05-05T13:39:19.154Z,4.77
2019-05-05T13:43:27.919Z,4.13
2019-05-05T13:47:36.385Z,3.60
2019-05-05T13:51:44.867Z,4.20
2019-05-05T13:55:58.376Z,5.10
2019-05-05T14:00:05.219Z,4.43
2019-05-05T14:04:13.701Z,4.80
2019-05-05T14:08:23.764Z,5.07
2019-05-05T14:12:34.398Z,4.63
2019-05-05T14:16:44.680Z,4.60
2019-05-05T14:21:13.931Z,4.93
2019-05-05T14:25:29.795Z,4.87
2019-05-05T14:29:49.802Z,5.23
2019-05-05T14:34:00.193Z,5.00
2019-05-05T14:38:10.283Z,5.67
2019-05-05T14:42:18.767Z,5.90
2019-05-05T14:46:27.251Z,5.33
2019-05-05T14:50:35.708Z,5.37
2019-05-05T14:54:44.192Z,5.53
2019-05-05T14:58:54.325Z,5.40
2019-05-05T15:03:03.654Z,5.13
2019-05-05T15:07:14.423Z,5.40
2019-05-05T15:11:36.820Z,5.57
2019-05-05T15:15:45.408Z,4.83
2019-05-05T15:19:54.254Z,4.43
2019-05-05T15:24:02.766Z,5.10
2019-05-05T15:28:13.709Z,4.93
2019-05-05T15:32:23.810Z,4.70
2019-05-05T15:36:33.452Z,4.97
2019-05-05T15:40:44.482Z,5.07
2019-05-05T15:44:54.260Z,5.97
2019-05-05T15:49:04.237Z,6.93
2019-05-05T15:53:14.398Z,4.60
2019-05-05T15:57:24.204Z,6.30
2019-05-05T16:01:34.534Z,6.10
2019-05-05T16:05:43.614Z,5.47
2019-05-05T16:09:53.730Z,5.10
2019-05-05T16:14:03.882Z,5.10
2019-05-05T16:18:23.030Z,5.40
2019-05-05T16:22:35.603Z,4.60
2019-05-05T16:26:44.293Z,4.70
2019-05-05T16:30:53.351Z,5.30
2019-05-05T16:35:23.729Z,4.63
2019-05-05T16:39:33.571Z,5.43
2019-05-05T16:43:44.110Z,5.60
2019-05-05T16:47:54.393Z,6.33
2019-05-05T16:52:04.182Z,5.07
2019-05-05T16:56:14.370Z,5.67
2019-05-05T17:00:25.666Z,6.07
2019-05-05T17:04:35.511Z,4.70
2019-05-05T17:08:44.361Z,5.67
2019-05-05T17:12:53.825Z,4.77
2019-05-05T17:17:19.306Z,4.60
2019-05-05T17:21:29.801Z,6.20
2019-05-05T17:25:38.388Z,5.43
2019-05-05T17:29:47.134Z,5.20
2019-05-05T17:33:55.859Z,5.20
2019-05-05T17:38:08.188Z,5.30
2019-05-05T17:42:30.496Z,5.50
2019-05-05T17:51:21.122Z,4.83
2019-05-05T17:55:31.239Z,5.30
2019-05-05T17:59:39.715Z,4.83
2019-05-05T18:03:48.172Z,7.10
2019-05-05T18:07:56.626Z,5.20
2019-05-05T18:12:23.663Z,5.27
2019-05-05T18:16:33.857Z,6.10
2019-05-05T18:20:44.768Z,5.20
2019-05-05T18:24:53.993Z,5.37
2019-05-05T18:29:03.827Z,4.50
2019-05-05T18:33:13.717Z,4.43
2019-05-05T18:37:24.054Z,4.00
2019-05-05T18:41:50.423Z,5.00
2019-05-05T18:46:04.565Z,3.80
2019-05-05T18:50:13.596Z,4.03
2019-05-05T18:54:22.263Z,3.93
2019-05-05T18:58:34.032Z,4.30
2019-05-05T19:02:44.319Z,4.70
2019-05-05T19:06:54.705Z,4.73
2019-05-05T19:11:03.704Z,3.93
2019-05-05T19:15:13.598Z,4.10
2019-05-05T19:19:24.000Z,3.80
2019-05-05T19:23:33.805Z,4.13
2019-05-05T19:27:43.411Z,4.50
2019-05-05T19:31:51.890Z,5.03
2019-05-05T19:36:00.599Z,4.00
2019-05-05T19:40:10.976Z,4.43
2019-05-05T19:44:19.460Z,5.97
2019-05-05T19:48:28.015Z,4.23
2019-05-05T19:52:36.457Z,4.70
2019-05-05T19:56:45.015Z,4.30
2019-05-05T20:00:55.110Z,5.10
2019-05-05T20:05:04.694Z,5.60
2019-05-05T20:09:14.216Z,4.60
2019-05-05T20:13:23.531Z,5.00
2019-05-05T20:17:36.620Z,4.40
2019-05-05T20:21:45.084Z,4.70
2019-05-05T20:25:53.774Z,4.57
2019-05-05T20:30:06.633Z,4.17
2019-05-05T20:34:16.934Z,3.87
2019-05-05T20:38:33.306Z,4.83
2019-05-05T20:42:44.619Z,4.90
2019-05-05T20:46:53.535Z,4.73
2019-05-05T20:51:02.263Z,4.93
2019-05-05T20:55:10.834Z,4.23
2019-05-05T20:59:30.053Z,5.53
2019-05-05T21:03:29.515Z,4.70
2019-05-05T21:07:37.987Z,4.70
2019-05-05T21:11:46.542Z,4.97
2019-05-05T21:15:55.223Z,5.63
2019-05-05T21:20:06.587Z,5.20
2019-05-05T21:24:15.050Z,4.77
2019-05-05T21:28:24.131Z,4.57
2019-05-05T21:32:34.019Z,5.40
2019-05-05T21:36:44.817Z,4.63
2019-05-05T21:40:53.179Z,4.43
2019-05-05T21:45:01.916Z,5.90
2019-05-05T21:49:10.475Z,5.57
2019-05-05T21:53:38.973Z,5.60
2019-05-05T21:57:49.087Z,6.53
2019-05-05T22:01:57.660Z,6.40
2019-05-05T22:06:06.506Z,7.10
2019-05-05T22:10:14.974Z,8.20
2019-05-05T22:14:23.439Z,7.73
2019-05-05T22:18:31.878Z,8.10
2019-05-05T22:22:41.998Z,8.03
2019-05-05T22:26:50.518Z,7.83
2019-05-05T22:30:58.981Z,7.17
2019-05-05T22:35:07.617Z,8.13
2019-05-05T22:39:17.045Z,8.50
2019-05-05T22:43:26.167Z,7.47
2019-05-05T22:47:34.685Z,7.03
2019-05-05T22:51:44.749Z,7.77
2019-05-05T22:55:53.430Z,6.83
2019-05-05T23:00:03.781Z,7.00
2019-05-05T23:08:35.124Z,9.87
2019-05-05T23:12:44.053Z,7.93
2019-05-05T23:16:54.285Z,8.10
2019-05-05T23:21:06.859Z,8.67
2019-05-05T23:29:47.431Z,7.70
2019-05-05T23:33:55.895Z,7.23
2019-05-05T23:38:04.375Z,7.83
2019-05-05T23:42:14.693Z,7.00
2019-05-05T23:46:24.219Z,7.40
2019-05-05T23:50:33.850Z,7.03
2019-05-05T23:54:44.598Z,6.67
2019-05-05T23:58:54.892Z,7.83
